Terminal Aerodrome Forecast
Issued by NWS

Home | Current Version | Previous Version | Text Only | Print | Product List | Glossary On
Versions: 1 2 3 4 5 6 7 8 9 10 11 12 13 14 15 16
000
FTUS43 KFGF 271700
TAFTVF
TAF
KTVF 271720Z 2718/2818 21007KT P6SM SKC
     FM272300 18009KT P6SM BKN120
     FM280400 15015KT 1SM -SN OVC012
     FM281200 08006KT P6SM OVC015
     FM281500 10007KT P6SM OVC025
      AMD LTD TO CLD VIS AND WIND=

USA.gov is the U.S. government's official web portal to all federal, state and local government web resources and services.